sensor_id;sensor_type;location;lat;lon;timestamp;P1;durP1;ratioP1;P2;durP2;ratioP2
4466;SDS011;2246;42.664;23.278;2023-05-29T00:01:23;9.23;;;4.90;;
4466;SDS011;2246;42.664;23.278;2023-05-29T00:03:49;9.40;;;4.70;;
4466;SDS011;2246;42.664;23.278;2023-05-29T00:06:15;12.52;;;5.47;;
4466;SDS011;2246;42.664;23.278;2023-05-29T00:08:41;8.50;;;4.78;;
4466;SDS011;2246;42.664;23.278;2023-05-29T00:11:07;7.30;;;4.60;;
4466;SDS011;2246;42.664;23.278;2023-05-29T00:13:33;8.35;;;4.93;;
4466;SDS011;2246;42.664;23.278;2023-05-29T00:15:59;9.15;;;4.82;;
4466;SDS011;2246;42.664;23.278;2023-05-29T00:18:26;8.98;;;5.22;;
4466;SDS011;2246;42.664;23.278;2023-05-29T00:20:52;9.60;;;4.60;;
4466;SDS011;2246;42.664;23.278;2023-05-29T00:23:18;8.23;;;5.18;;
4466;SDS011;2246;42.664;23.278;2023-05-29T00:25:44;8.80;;;5.18;;
4466;SDS011;2246;42.664;23.278;2023-05-29T00:28:10;9.90;;;4.70;;
4466;SDS011;2246;42.664;23.278;2023-05-29T00:30:37;12.80;;;5.10;;
4466;SDS011;2246;42.664;23.278;2023-05-29T00:33:03;7.65;;;4.82;;
4466;SDS011;2246;42.664;23.278;2023-05-29T00:35:30;6.93;;;4.55;;
4466;SDS011;2246;42.664;23.278;2023-05-29T00:37:57;6.60;;;4.53;;
4466;SDS011;2246;42.664;23.278;2023-05-29T00:40:23;8.93;;;4.63;;
4466;SDS011;2246;42.664;23.278;2023-05-29T00:42:49;8.18;;;4.88;;
4466;SDS011;2246;42.664;23.278;2023-05-29T00:45:15;12.43;;;4.75;;
4466;SDS011;2246;42.664;23.278;2023-05-29T00:47:41;12.93;;;5.00;;
4466;SDS011;2246;42.664;23.278;2023-05-29T00:50:08;9.02;;;4.78;;
4466;SDS011;2246;42.664;23.278;2023-05-29T00:52:35;6.88;;;4.00;;
4466;SDS011;2246;42.664;23.278;2023-05-29T00:55:02;14.67;;;5.57;;
4466;SDS011;2246;42.664;23.278;2023-05-29T00:57:29;7.35;;;4.78;;
4466;SDS011;2246;42.664;23.278;2023-05-29T00:59:55;10.07;;;4.60;;
4466;SDS011;2246;42.664;23.278;2023-05-29T01:02:21;9.65;;;4.90;;
4466;SDS011;2246;42.664;23.278;2023-05-29T01:04:48;8.10;;;4.95;;
4466;SDS011;2246;42.664;23.278;2023-05-29T01:07:14;9.55;;;5.05;;
4466;SDS011;2246;42.664;23.278;2023-05-29T01:09:40;7.75;;;4.72;;
4466;SDS011;2246;42.664;23.278;2023-05-29T01:25:23;11.50;;;5.32;;
4466;SDS011;2246;42.664;23.278;2023-05-29T01:27:49;11.45;;;5.13;;
4466;SDS011;2246;42.664;23.278;2023-05-29T01:30:17;8.88;;;4.93;;
4466;SDS011;2246;42.664;23.278;2023-05-29T01:32:43;6.63;;;4.82;;
4466;SDS011;2246;42.664;23.278;2023-05-29T01:35:09;10.48;;;5.47;;
4466;SDS011;2246;42.664;23.278;2023-05-29T01:37:35;7.85;;;5.45;;
4466;SDS011;2246;42.664;23.278;2023-05-29T01:40:01;9.70;;;6.13;;
4466;SDS011;2246;42.664;23.278;2023-05-29T01:44:55;7.63;;;5.07;;
4466;SDS011;2246;42.664;23.278;2023-05-29T01:47:22;8.85;;;5.63;;
4466;SDS011;2246;42.664;23.278;2023-05-29T01:49:49;11.15;;;5.93;;
4466;SDS011;2246;42.664;23.278;2023-05-29T01:52:17;8.07;;;5.40;;
4466;SDS011;2246;42.664;23.278;2023-05-29T01:54:43;8.48;;;5.18;;
4466;SDS011;2246;42.664;23.278;2023-05-29T01:57:10;10.15;;;5.25;;
4466;SDS011;2246;42.664;23.278;2023-05-29T01:59:37;10.90;;;5.18;;
4466;SDS011;2246;42.664;23.278;2023-05-29T02:02:09;7.15;;;5.18;;
4466;SDS011;2246;42.664;23.278;2023-05-29T02:04:37;7.70;;;5.13;;
4466;SDS011;2246;42.664;23.278;2023-05-29T02:07:03;12.57;;;5.18;;
4466;SDS011;2246;42.664;23.278;2023-05-29T02:09:30;9.20;;;4.95;;
4466;SDS011;2246;42.664;23.278;2023-05-29T02:11:56;8.30;;;5.43;;
4466;SDS011;2246;42.664;23.278;2023-05-29T02:14:22;12.05;;;5.30;;
4466;SDS011;2246;42.664;23.278;2023-05-29T02:16:51;9.93;;;5.90;;
4466;SDS011;2246;42.664;23.278;2023-05-29T02:19:18;9.13;;;5.78;;
4466;SDS011;2246;42.664;23.278;2023-05-29T02:21:44;7.63;;;5.37;;
4466;SDS011;2246;42.664;23.278;2023-05-29T02:24:10;8.60;;;5.60;;
4466;SDS011;2246;42.664;23.278;2023-05-29T02:26:36;9.93;;;5.55;;
4466;SDS011;2246;42.664;23.278;2023-05-29T02:29:02;9.18;;;5.28;;
4466;SDS011;2246;42.664;23.278;2023-05-29T02:33:56;11.45;;;5.45;;
4466;SDS011;2246;42.664;23.278;2023-05-29T02:36:22;9.60;;;5.30;;
4466;SDS011;2246;42.664;23.278;2023-05-29T02:38:48;9.88;;;5.70;;
4466;SDS011;2246;42.664;23.278;2023-05-29T02:41:14;8.68;;;5.63;;
4466;SDS011;2246;42.664;23.278;2023-05-29T02:43:40;8.15;;;5.45;;
4466;SDS011;2246;42.664;23.278;2023-05-29T02:46:06;8.93;;;5.35;;
4466;SDS011;2246;42.664;23.278;2023-05-29T02:48:32;10.32;;;5.30;;
4466;SDS011;2246;42.664;23.278;2023-05-29T02:50:58;9.77;;;5.35;;
4466;SDS011;2246;42.664;23.278;2023-05-29T02:53:24;9.27;;;5.80;;
4466;SDS011;2246;42.664;23.278;2023-05-29T02:55:50;8.18;;;4.53;;
4466;SDS011;2246;42.664;23.278;2023-05-29T02:58:17;9.02;;;5.22;;
4466;SDS011;2246;42.664;23.278;2023-05-29T03:00:43;7.22;;;5.03;;
4466;SDS011;2246;42.664;23.278;2023-05-29T03:03:09;10.85;;;5.43;;
4466;SDS011;2246;42.664;23.278;2023-05-29T03:05:35;12.10;;;5.95;;
4466;SDS011;2246;42.664;23.278;2023-05-29T03:08:01;8.00;;;6.00;;
4466;SDS011;2246;42.664;23.278;2023-05-29T03:10:27;7.82;;;5.30;;
4466;SDS011;2246;42.664;23.278;2023-05-29T03:12:53;11.27;;;5.90;;
4466;SDS011;2246;42.664;23.278;2023-05-29T03:15:20;9.98;;;5.43;;
4466;SDS011;2246;42.664;23.278;2023-05-29T03:17:46;11.07;;;6.40;;
4466;SDS011;2246;42.664;23.278;2023-05-29T03:20:12;11.05;;;6.57;;
4466;SDS011;2246;42.664;23.278;2023-05-29T03:22:38;37.95;;;20.13;;
4466;SDS011;2246;42.664;23.278;2023-05-29T03:25:05;17.67;;;9.55;;
4466;SDS011;2246;42.664;23.278;2023-05-29T03:27:31;12.15;;;6.15;;
4466;SDS011;2246;42.664;23.278;2023-05-29T03:29:57;8.55;;;5.68;;
4466;SDS011;2246;42.664;23.278;2023-05-29T03:32:24;17.90;;;6.35;;
4466;SDS011;2246;42.664;23.278;2023-05-29T03:34:50;12.60;;;6.05;;
4466;SDS011;2246;42.664;23.278;2023-05-29T03:37:16;13.27;;;5.80;;
4466;SDS011;2246;42.664;23.278;2023-05-29T03:39:42;13.35;;;6.10;;
4466;SDS011;2246;42.664;23.278;2023-05-29T03:42:08;12.02;;;6.07;;
4466;SDS011;2246;42.664;23.278;2023-05-29T03:44:34;14.07;;;5.63;;
4466;SDS011;2246;42.664;23.278;2023-05-29T03:47:00;11.43;;;6.18;;
4466;SDS011;2246;42.664;23.278;2023-05-29T03:49:26;11.55;;;6.55;;
4466;SDS011;2246;42.664;23.278;2023-05-29T03:51:52;9.98;;;6.50;;
4466;SDS011;2246;42.664;23.278;2023-05-29T03:54:18;11.05;;;6.47;;
4466;SDS011;2246;42.664;23.278;2023-05-29T03:56:44;15.07;;;6.45;;
4466;SDS011;2246;42.664;23.278;2023-05-29T03:59:10;13.07;;;6.82;;
4466;SDS011;2246;42.664;23.278;2023-05-29T04:01:36;16.38;;;6.75;;
4466;SDS011;2246;42.664;23.278;2023-05-29T04:04:02;13.27;;;6.30;;
4466;SDS011;2246;42.664;23.278;2023-05-29T04:06:29;11.80;;;5.95;;
4466;SDS011;2246;42.664;23.278;2023-05-29T04:08:54;10.60;;;6.20;;
4466;SDS011;2246;42.664;23.278;2023-05-29T04:11:21;10.48;;;6.10;;
4466;SDS011;2246;42.664;23.278;2023-05-29T04:13:47;10.98;;;6.03;;
4466;SDS011;2246;42.664;23.278;2023-05-29T04:16:14;18.85;;;8.65;;
4466;SDS011;2246;42.664;23.278;2023-05-29T04:18:40;15.70;;;8.40;;
4466;SDS011;2246;42.664;23.278;2023-05-29T04:21:06;11.07;;;6.20;;
4466;SDS011;2246;42.664;23.278;2023-05-29T04:23:32;11.30;;;6.97;;
4466;SDS011;2246;42.664;23.278;2023-05-29T04:25:58;13.13;;;7.15;;
4466;SDS011;2246;42.664;23.278;2023-05-29T04:28:27;11.40;;;6.43;;
4466;SDS011;2246;42.664;23.278;2023-05-29T04:30:53;13.02;;;6.18;;
4466;SDS011;2246;42.664;23.278;2023-05-29T04:33:21;20.27;;;7.68;;
4466;SDS011;2246;42.664;23.278;2023-05-29T04:35:48;16.42;;;7.75;;
4466;SDS011;2246;42.664;23.278;2023-05-29T04:38:14;15.43;;;7.13;;
4466;SDS011;2246;42.664;23.278;2023-05-29T04:40:41;15.55;;;6.20;;
4466;SDS011;2246;42.664;23.278;2023-05-29T04:43:08;12.82;;;6.35;;
4466;SDS011;2246;42.664;23.278;2023-05-29T04:45:34;9.45;;;5.63;;
4466;SDS011;2246;42.664;23.278;2023-05-29T04:48:02;9.52;;;6.38;;
4466;SDS011;2246;42.664;23.278;2023-05-29T04:50:28;12.43;;;6.43;;
4466;SDS011;2246;42.664;23.278;2023-05-29T04:52:56;12.48;;;6.50;;
4466;SDS011;2246;42.664;23.278;2023-05-29T04:55:22;13.90;;;7.05;;
4466;SDS011;2246;42.664;23.278;2023-05-29T04:57:48;14.90;;;6.90;;
4466;SDS011;2246;42.664;23.278;2023-05-29T05:00:15;11.30;;;6.85;;
4466;SDS011;2246;42.664;23.278;2023-05-29T05:02:43;16.00;;;7.07;;
4466;SDS011;2246;42.664;23.278;2023-05-29T05:05:09;15.20;;;7.18;;
4466;SDS011;2246;42.664;23.278;2023-05-29T05:07:35;15.70;;;6.93;;
4466;SDS011;2246;42.664;23.278;2023-05-29T05:10:02;11.90;;;7.10;;
4466;SDS011;2246;42.664;23.278;2023-05-29T05:12:28;12.67;;;7.37;;
4466;SDS011;2246;42.664;23.278;2023-05-29T05:14:54;19.20;;;7.75;;
4466;SDS011;2246;42.664;23.278;2023-05-29T05:17:20;18.02;;;6.97;;
4466;SDS011;2246;42.664;23.278;2023-05-29T05:19:47;19.75;;;7.60;;
4466;SDS011;2246;42.664;23.278;2023-05-29T05:22:14;18.17;;;7.88;;
4466;SDS011;2246;42.664;23.278;2023-05-29T05:24:41;16.98;;;6.88;;
4466;SDS011;2246;42.664;23.278;2023-05-29T05:27:07;20.10;;;7.68;;
4466;SDS011;2246;42.664;23.278;2023-05-29T05:29:33;18.77;;;8.30;;
4466;SDS011;2246;42.664;23.278;2023-05-29T05:31:59;21.55;;;8.48;;
4466;SDS011;2246;42.664;23.278;2023-05-29T05:34:25;23.10;;;8.57;;
4466;SDS011;2246;42.664;23.278;2023-05-29T05:36:51;27.50;;;9.35;;
4466;SDS011;2246;42.664;23.278;2023-05-29T05:39:17;21.23;;;9.57;;
4466;SDS011;2246;42.664;23.278;2023-05-29T05:41:43;17.92;;;9.40;;
4466;SDS011;2246;42.664;23.278;2023-05-29T05:44:09;14.88;;;9.02;;
4466;SDS011;2246;42.664;23.278;2023-05-29T05:46:35;22.23;;;9.95;;
4466;SDS011;2246;42.664;23.278;2023-05-29T05:49:01;21.90;;;7.88;;
4466;SDS011;2246;42.664;23.278;2023-05-29T05:51:27;14.48;;;6.47;;
4466;SDS011;2246;42.664;23.278;2023-05-29T05:53:53;14.25;;;6.95;;
4466;SDS011;2246;42.664;23.278;2023-05-29T05:56:19;20.40;;;6.90;;
4466;SDS011;2246;42.664;23.278;2023-05-29T05:58:45;18.73;;;6.40;;
4466;SDS011;2246;42.664;23.278;2023-05-29T06:01:11;11.25;;;5.50;;
4466;SDS011;2246;42.664;23.278;2023-05-29T06:03:37;12.82;;;5.22;;
4466;SDS011;2246;42.664;23.278;2023-05-29T06:06:03;12.82;;;5.70;;
4466;SDS011;2246;42.664;23.278;2023-05-29T06:08:30;15.57;;;6.30;;
4466;SDS011;2246;42.664;23.278;2023-05-29T06:10:56;15.00;;;6.13;;
4466;SDS011;2246;42.664;23.278;2023-05-29T06:13:22;17.80;;;6.43;;
4466;SDS011;2246;42.664;23.278;2023-05-29T06:15:48;12.68;;;6.45;;
4466;SDS011;2246;42.664;23.278;2023-05-29T06:18:14;12.50;;;6.10;;
4466;SDS011;2246;42.664;23.278;2023-05-29T06:20:40;9.77;;;5.38;;
4466;SDS011;2246;42.664;23.278;2023-05-29T06:23:06;8.95;;;4.53;;
4466;SDS011;2246;42.664;23.278;2023-05-29T06:25:32;12.40;;;6.40;;
4466;SDS011;2246;42.664;23.278;2023-05-29T06:27:59;10.90;;;5.40;;
4466;SDS011;2246;42.664;23.278;2023-05-29T06:30:25;9.77;;;4.97;;
4466;SDS011;2246;42.664;23.278;2023-05-29T06:32:51;10.73;;;5.82;;
4466;SDS011;2246;42.664;23.278;2023-05-29T06:35:17;9.80;;;5.05;;
4466;SDS011;2246;42.664;23.278;2023-05-29T06:37:44;8.68;;;5.28;;
4466;SDS011;2246;42.664;23.278;2023-05-29T06:40:11;9.57;;;4.85;;
4466;SDS011;2246;42.664;23.278;2023-05-29T06:42:37;8.68;;;4.97;;
4466;SDS011;2246;42.664;23.278;2023-05-29T06:45:03;9.73;;;5.03;;
4466;SDS011;2246;42.664;23.278;2023-05-29T06:47:29;12.38;;;4.65;;
4466;SDS011;2246;42.664;23.278;2023-05-29T06:49:56;7.78;;;4.20;;
4466;SDS011;2246;42.664;23.278;2023-05-29T06:52:22;4.82;;;2.58;;
4466;SDS011;2246;42.664;23.278;2023-05-29T06:54:48;8.75;;;3.25;;
4466;SDS011;2246;42.664;23.278;2023-05-29T06:57:14;6.22;;;3.22;;
4466;SDS011;2246;42.664;23.278;2023-05-29T06:59:40;8.00;;;3.35;;
4466;SDS011;2246;42.664;23.278;2023-05-29T07:02:06;5.57;;;3.22;;
4466;SDS011;2246;42.664;23.278;2023-05-29T07:04:32;5.50;;;3.30;;
4466;SDS011;2246;42.664;23.278;2023-05-29T07:06:58;6.40;;;3.47;;
4466;SDS011;2246;42.664;23.278;2023-05-29T07:09:24;7.57;;;3.47;;
4466;SDS011;2246;42.664;23.278;2023-05-29T07:11:52;10.15;;;3.08;;
4466;SDS011;2246;42.664;23.278;2023-05-29T07:14:18;6.97;;;3.15;;
4466;SDS011;2246;42.664;23.278;2023-05-29T07:16:44;7.43;;;3.10;;
4466;SDS011;2246;42.664;23.278;2023-05-29T07:19:10;4.10;;;2.53;;
4466;SDS011;2246;42.664;23.278;2023-05-29T07:21:38;5.88;;;3.05;;
4466;SDS011;2246;42.664;23.278;2023-05-29T07:24:04;5.43;;;3.10;;
4466;SDS011;2246;42.664;23.278;2023-05-29T07:26:30;6.05;;;2.70;;
4466;SDS011;2246;42.664;23.278;2023-05-29T07:28:57;6.68;;;2.53;;
4466;SDS011;2246;42.664;23.278;2023-05-29T07:31:23;5.90;;;3.15;;
4466;SDS011;2246;42.664;23.278;2023-05-29T07:33:49;5.25;;;2.97;;
4466;SDS011;2246;42.664;23.278;2023-05-29T07:36:15;6.43;;;3.03;;
4466;SDS011;2246;42.664;23.278;2023-05-29T07:38:43;5.32;;;2.60;;
4466;SDS011;2246;42.664;23.278;2023-05-29T07:41:09;4.67;;;2.37;;
4466;SDS011;2246;42.664;23.278;2023-05-29T07:43:35;4.55;;;2.40;;
4466;SDS011;2246;42.664;23.278;2023-05-29T07:46:01;5.05;;;2.42;;
4466;SDS011;2246;42.664;23.278;2023-05-29T07:48:28;6.18;;;2.50;;
4466;SDS011;2246;42.664;23.278;2023-05-29T07:50:54;4.20;;;2.70;;
4466;SDS011;2246;42.664;23.278;2023-05-29T07:53:20;7.32;;;2.40;;
4466;SDS011;2246;42.664;23.278;2023-05-29T07:55:46;7.88;;;2.47;;
4466;SDS011;2246;42.664;23.278;2023-05-29T07:58:12;8.45;;;3.30;;
4466;SDS011;2246;42.664;23.278;2023-05-29T08:00:38;4.57;;;2.60;;
4466;SDS011;2246;42.664;23.278;2023-05-29T08:03:04;5.45;;;2.88;;
4466;SDS011;2246;42.664;23.278;2023-05-29T08:05:30;6.88;;;3.03;;
4466;SDS011;2246;42.664;23.278;2023-05-29T08:07:59;3.63;;;2.42;;
4466;SDS011;2246;42.664;23.278;2023-05-29T08:10:25;7.95;;;2.85;;
4466;SDS011;2246;42.664;23.278;2023-05-29T08:12:51;5.55;;;2.83;;
4466;SDS011;2246;42.664;23.278;2023-05-29T08:15:18;4.10;;;2.90;;
4466;SDS011;2246;42.664;23.278;2023-05-29T08:17:44;4.65;;;2.60;;
4466;SDS011;2246;42.664;23.278;2023-05-29T08:20:10;6.00;;;2.58;;
4466;SDS011;2246;42.664;23.278;2023-05-29T08:22:36;6.05;;;3.13;;
4466;SDS011;2246;42.664;23.278;2023-05-29T08:25:02;3.22;;;2.58;;
4466;SDS011;2246;42.664;23.278;2023-05-29T08:27:28;4.47;;;2.53;;
4466;SDS011;2246;42.664;23.278;2023-05-29T08:29:54;7.75;;;2.97;;
4466;SDS011;2246;42.664;23.278;2023-05-29T08:32:20;4.28;;;2.47;;
4466;SDS011;2246;42.664;23.278;2023-05-29T08:34:46;5.97;;;2.90;;
4466;SDS011;2246;42.664;23.278;2023-05-29T08:37:13;8.73;;;2.80;;
4466;SDS011;2246;42.664;23.278;2023-05-29T08:39:39;4.50;;;2.72;;
4466;SDS011;2246;42.664;23.278;2023-05-29T08:42:07;4.15;;;2.30;;
4466;SDS011;2246;42.664;23.278;2023-05-29T08:44:34;6.72;;;2.90;;
4466;SDS011;2246;42.664;23.278;2023-05-29T08:47:02;6.00;;;2.60;;
4466;SDS011;2246;42.664;23.278;2023-05-29T08:49:29;5.32;;;2.40;;
4466;SDS011;2246;42.664;23.278;2023-05-29T08:51:57;5.40;;;2.27;;
4466;SDS011;2246;42.664;23.278;2023-05-29T08:54:26;6.68;;;2.50;;
4466;SDS011;2246;42.664;23.278;2023-05-29T08:56:52;4.80;;;2.60;;
4466;SDS011;2246;42.664;23.278;2023-05-29T08:59:18;5.88;;;2.83;;
4466;SDS011;2246;42.664;23.278;2023-05-29T09:01:45;5.53;;;2.80;;
4466;SDS011;2246;42.664;23.278;2023-05-29T09:04:11;3.88;;;2.65;;
4466;SDS011;2246;42.664;23.278;2023-05-29T09:06:37;5.65;;;2.50;;
4466;SDS011;2246;42.664;23.278;2023-05-29T09:09:06;6.85;;;2.83;;
4466;SDS011;2246;42.664;23.278;2023-05-29T09:11:32;6.68;;;2.70;;
4466;SDS011;2246;42.664;23.278;2023-05-29T09:13:58;4.75;;;2.58;;
4466;SDS011;2246;42.664;23.278;2023-05-29T09:16:24;4.75;;;2.55;;
4466;SDS011;2246;42.664;23.278;2023-05-29T09:18:50;2.65;;;2.08;;
4466;SDS011;2246;42.664;23.278;2023-05-29T09:21:26;7.43;;;2.45;;
4466;SDS011;2246;42.664;23.278;2023-05-29T09:23:54;3.47;;;2.58;;
4466;SDS011;2246;42.664;23.278;2023-05-29T09:26:21;4.82;;;2.45;;
4466;SDS011;2246;42.664;23.278;2023-05-29T09:28:48;7.72;;;2.70;;
4466;SDS011;2246;42.664;23.278;2023-05-29T09:31:14;3.30;;;2.25;;
4466;SDS011;2246;42.664;23.278;2023-05-29T09:33:48;3.22;;;2.50;;
4466;SDS011;2246;42.664;23.278;2023-05-29T09:36:20;9.07;;;2.80;;
4466;SDS011;2246;42.664;23.278;2023-05-29T09:38:50;3.83;;;2.75;;
4466;SDS011;2246;42.664;23.278;2023-05-29T09:41:22;6.13;;;2.55;;
4466;SDS011;2246;42.664;23.278;2023-05-29T09:43:49;2.72;;;2.42;;
4466;SDS011;2246;42.664;23.278;2023-05-29T09:46:16;5.43;;;2.90;;
4466;SDS011;2246;42.664;23.278;2023-05-29T09:48:45;7.95;;;3.15;;
4466;SDS011;2246;42.664;23.278;2023-05-29T09:51:21;4.47;;;2.80;;
4466;SDS011;2246;42.664;23.278;2023-05-29T09:53:48;6.18;;;2.85;;
4466;SDS011;2246;42.664;23.278;2023-05-29T09:56:15;5.43;;;2.78;;
4466;SDS011;2246;42.664;23.278;2023-05-29T09:58:43;4.10;;;2.40;;
4466;SDS011;2246;42.664;23.278;2023-05-29T10:01:13;4.03;;;2.47;;
4466;SDS011;2246;42.664;23.278;2023-05-29T10:03:42;9.57;;;3.15;;
4466;SDS011;2246;42.664;23.278;2023-05-29T10:06:09;4.05;;;2.50;;
4466;SDS011;2246;42.664;23.278;2023-05-29T10:08:45;5.18;;;3.17;;
4466;SDS011;2246;42.664;23.278;2023-05-29T10:11:16;6.45;;;2.88;;
4466;SDS011;2246;42.664;23.278;2023-05-29T10:13:45;5.63;;;2.75;;
4466;SDS011;2246;42.664;23.278;2023-05-29T10:16:14;4.07;;;2.60;;
4466;SDS011;2246;42.664;23.278;2023-05-29T10:18:44;5.25;;;3.08;;
4466;SDS011;2246;42.664;23.278;2023-05-29T10:21:16;4.80;;;2.95;;
4466;SDS011;2246;42.664;23.278;2023-05-29T10:23:44;5.35;;;2.92;;
4466;SDS011;2246;42.664;23.278;2023-05-29T10:26:15;5.13;;;3.08;;
4466;SDS011;2246;42.664;23.278;2023-05-29T10:28:45;5.10;;;2.92;;
4466;SDS011;2246;42.664;23.278;2023-05-29T10:31:14;4.82;;;2.97;;
4466;SDS011;2246;42.664;23.278;2023-05-29T10:33:48;2.92;;;2.38;;
4466;SDS011;2246;42.664;23.278;2023-05-29T10:36:20;7.78;;;3.08;;
4466;SDS011;2246;42.664;23.278;2023-05-29T10:38:49;6.53;;;3.30;;
4466;SDS011;2246;42.664;23.278;2023-05-29T10:43:54;4.75;;;2.85;;
4466;SDS011;2246;42.664;23.278;2023-05-29T10:46:20;4.00;;;2.53;;
4466;SDS011;2246;42.664;23.278;2023-05-29T10:48:49;4.45;;;2.70;;
4466;SDS011;2246;42.664;23.278;2023-05-29T10:51:27;6.85;;;2.42;;
4466;SDS011;2246;42.664;23.278;2023-05-29T10:53:56;3.95;;;2.50;;
4466;SDS011;2246;42.664;23.278;2023-05-29T10:56:23;11.70;;;3.35;;
4466;SDS011;2246;42.664;23.278;2023-05-29T10:58:52;4.18;;;3.05;;
4466;SDS011;2246;42.664;23.278;2023-05-29T11:01:20;5.35;;;2.70;;
4466;SDS011;2246;42.664;23.278;2023-05-29T11:03:47;8.98;;;2.92;;
4466;SDS011;2246;42.664;23.278;2023-05-29T11:06:20;4.82;;;2.90;;
4466;SDS011;2246;42.664;23.278;2023-05-29T11:08:55;8.57;;;3.58;;
4466;SDS011;2246;42.664;23.278;2023-05-29T11:13:54;3.65;;;2.90;;
4466;SDS011;2246;42.664;23.278;2023-05-29T11:18:59;7.15;;;3.03;;
4466;SDS011;2246;42.664;23.278;2023-05-29T11:23:51;11.15;;;3.13;;
4466;SDS011;2246;42.664;23.278;2023-05-29T11:26:19;3.67;;;2.58;;
4466;SDS011;2246;42.664;23.278;2023-05-29T11:28:45;5.30;;;3.50;;
4466;SDS011;2246;42.664;23.278;2023-05-29T11:31:11;8.70;;;3.10;;
4466;SDS011;2246;42.664;23.278;2023-05-29T11:33:39;5.50;;;2.88;;
4466;SDS011;2246;42.664;23.278;2023-05-29T11:36:09;4.32;;;2.80;;
4466;SDS011;2246;42.664;23.278;2023-05-29T11:38:35;5.18;;;2.97;;
4466;SDS011;2246;42.664;23.278;2023-05-29T11:41:01;8.55;;;3.05;;
4466;SDS011;2246;42.664;23.278;2023-05-29T11:43:28;5.90;;;2.75;;
4466;SDS011;2246;42.664;23.278;2023-05-29T11:45:54;3.90;;;2.90;;
4466;SDS011;2246;42.664;23.278;2023-05-29T11:48:20;5.50;;;3.65;;
4466;SDS011;2246;42.664;23.278;2023-05-29T11:53:14;11.77;;;3.30;;
4466;SDS011;2246;42.664;23.278;2023-05-29T11:55:41;5.53;;;2.85;;
4466;SDS011;2246;42.664;23.278;2023-05-29T11:58:07;6.55;;;2.92;;
4466;SDS011;2246;42.664;23.278;2023-05-29T12:00:34;7.45;;;3.15;;
4466;SDS011;2246;42.664;23.278;2023-05-29T12:03:00;5.78;;;3.28;;
4466;SDS011;2246;42.664;23.278;2023-05-29T12:05:30;9.05;;;2.70;;
4466;SDS011;2246;42.664;23.278;2023-05-29T12:07:57;7.17;;;2.93;;
4466;SDS011;2246;42.664;23.278;2023-05-29T12:10:25;4.32;;;2.88;;
4466;SDS011;2246;42.664;23.278;2023-05-29T12:13:01;4.65;;;3.20;;
4466;SDS011;2246;42.664;23.278;2023-05-29T12:15:27;3.78;;;2.72;;
4466;SDS011;2246;42.664;23.278;2023-05-29T12:17:53;3.78;;;2.83;;
4466;SDS011;2246;42.664;23.278;2023-05-29T12:20:22;7.90;;;3.13;;
4466;SDS011;2246;42.664;23.278;2023-05-29T12:22:48;6.25;;;2.97;;
4466;SDS011;2246;42.664;23.278;2023-05-29T12:25:21;4.43;;;2.72;;
4466;SDS011;2246;42.664;23.278;2023-05-29T12:27:47;8.00;;;2.80;;
4466;SDS011;2246;42.664;23.278;2023-05-29T12:30:14;5.25;;;2.42;;
4466;SDS011;2246;42.664;23.278;2023-05-29T12:32:45;6.28;;;3.08;;
4466;SDS011;2246;42.664;23.278;2023-05-29T12:35:12;11.45;;;2.85;;
4466;SDS011;2246;42.664;23.278;2023-05-29T12:37:46;5.93;;;2.90;;
4466;SDS011;2246;42.664;23.278;2023-05-29T12:40:16;5.07;;;3.22;;
4466;SDS011;2246;42.664;23.278;2023-05-29T12:42:42;5.10;;;3.40;;
4466;SDS011;2246;42.664;23.278;2023-05-29T12:45:08;10.95;;;3.80;;
4466;SDS011;2246;42.664;23.278;2023-05-29T12:47:35;7.90;;;3.97;;
4466;SDS011;2246;42.664;23.278;2023-05-29T12:50:14;8.60;;;3.63;;
4466;SDS011;2246;42.664;23.278;2023-05-29T12:52:41;13.90;;;4.57;;
4466;SDS011;2246;42.664;23.278;2023-05-29T12:55:07;10.40;;;4.85;;
4466;SDS011;2246;42.664;23.278;2023-05-29T12:57:33;11.10;;;4.43;;
4466;SDS011;2246;42.664;23.278;2023-05-29T12:59:59;12.18;;;3.97;;
4466;SDS011;2246;42.664;23.278;2023-05-29T13:02:25;9.82;;;3.50;;
4466;SDS011;2246;42.664;23.278;2023-05-29T13:04:51;5.22;;;3.47;;
4466;SDS011;2246;42.664;23.278;2023-05-29T13:07:17;6.75;;;3.92;;
4466;SDS011;2246;42.664;23.278;2023-05-29T13:09:43;6.78;;;3.60;;
4466;SDS011;2246;42.664;23.278;2023-05-29T13:12:09;7.72;;;4.00;;
4466;SDS011;2246;42.664;23.278;2023-05-29T13:14:35;7.95;;;4.10;;
4466;SDS011;2246;42.664;23.278;2023-05-29T13:17:01;7.63;;;3.75;;
4466;SDS011;2246;42.664;23.278;2023-05-29T13:19:27;9.70;;;3.47;;
4466;SDS011;2246;42.664;23.278;2023-05-29T13:21:53;9.13;;;3.45;;
4466;SDS011;2246;42.664;23.278;2023-05-29T13:24:19;8.40;;;3.90;;
4466;SDS011;2246;42.664;23.278;2023-05-29T13:26:45;7.10;;;3.05;;
4466;SDS011;2246;42.664;23.278;2023-05-29T13:29:11;9.48;;;3.58;;
4466;SDS011;2246;42.664;23.278;2023-05-29T13:31:37;5.38;;;3.47;;
4466;SDS011;2246;42.664;23.278;2023-05-29T13:34:03;9.93;;;3.60;;
4466;SDS011;2246;42.664;23.278;2023-05-29T13:36:29;10.45;;;4.18;;
4466;SDS011;2246;42.664;23.278;2023-05-29T13:38:56;6.78;;;3.30;;
4466;SDS011;2246;42.664;23.278;2023-05-29T13:41:22;5.60;;;3.28;;
4466;SDS011;2246;42.664;23.278;2023-05-29T13:43:48;4.80;;;3.17;;
4466;SDS011;2246;42.664;23.278;2023-05-29T13:46:14;12.38;;;5.45;;
4466;SDS011;2246;42.664;23.278;2023-05-29T13:48:40;5.47;;;4.13;;
4466;SDS011;2246;42.664;23.278;2023-05-29T13:51:06;6.03;;;3.47;;
4466;SDS011;2246;42.664;23.278;2023-05-29T13:53:32;6.78;;;3.42;;
4466;SDS011;2246;42.664;23.278;2023-05-29T13:55:58;8.38;;;4.53;;
4466;SDS011;2246;42.664;23.278;2023-05-29T13:58:24;6.95;;;3.92;;
4466;SDS011;2246;42.664;23.278;2023-05-29T14:00:50;5.60;;;3.63;;
4466;SDS011;2246;42.664;23.278;2023-05-29T14:03:16;5.97;;;3.67;;
4466;SDS011;2246;42.664;23.278;2023-05-29T14:05:43;9.75;;;4.15;;
4466;SDS011;2246;42.664;23.278;2023-05-29T14:08:09;5.00;;;3.58;;
4466;SDS011;2246;42.664;23.278;2023-05-29T14:10:35;13.70;;;6.90;;
4466;SDS011;2246;42.664;23.278;2023-05-29T14:13:02;7.80;;;3.92;;
4466;SDS011;2246;42.664;23.278;2023-05-29T14:15:28;7.10;;;3.17;;
4466;SDS011;2246;42.664;23.278;2023-05-29T14:17:54;5.65;;;3.53;;
4466;SDS011;2246;42.664;23.278;2023-05-29T14:20:21;5.88;;;2.28;;
4466;SDS011;2246;42.664;23.278;2023-05-29T14:22:47;4.88;;;2.22;;
4466;SDS011;2246;42.664;23.278;2023-05-29T14:25:13;6.05;;;2.25;;
4466;SDS011;2246;42.664;23.278;2023-05-29T14:27:39;4.13;;;1.80;;
4466;SDS011;2246;42.664;23.278;2023-05-29T14:30:06;6.00;;;1.60;;
4466;SDS011;2246;42.664;23.278;2023-05-29T14:32:32;2.63;;;1.70;;
4466;SDS011;2246;42.664;23.278;2023-05-29T14:34:58;4.40;;;1.75;;
4466;SDS011;2246;42.664;23.278;2023-05-29T14:37:24;4.22;;;1.80;;
4466;SDS011;2246;42.664;23.278;2023-05-29T14:39:50;2.72;;;1.90;;
4466;SDS011;2246;42.664;23.278;2023-05-29T14:42:16;2.78;;;1.83;;
4466;SDS011;2246;42.664;23.278;2023-05-29T14:44:42;5.05;;;1.88;;
4466;SDS011;2246;42.664;23.278;2023-05-29T14:47:08;4.95;;;2.17;;
4466;SDS011;2246;42.664;23.278;2023-05-29T14:49:35;3.30;;;1.80;;
4466;SDS011;2246;42.664;23.278;2023-05-29T14:52:02;4.20;;;1.90;;
4466;SDS011;2246;42.664;23.278;2023-05-29T14:54:29;9.85;;;2.22;;
4466;SDS011;2246;42.664;23.278;2023-05-29T14:56:55;4.00;;;2.08;;
4466;SDS011;2246;42.664;23.278;2023-05-29T14:59:22;5.50;;;2.30;;
4466;SDS011;2246;42.664;23.278;2023-05-29T15:01:49;5.37;;;2.80;;
4466;SDS011;2246;42.664;23.278;2023-05-29T15:04:15;4.00;;;2.17;;
4466;SDS011;2246;42.664;23.278;2023-05-29T15:06:41;6.68;;;2.55;;
4466;SDS011;2246;42.664;23.278;2023-05-29T15:09:07;6.22;;;2.05;;
4466;SDS011;2246;42.664;23.278;2023-05-29T15:11:33;5.50;;;2.20;;
4466;SDS011;2246;42.664;23.278;2023-05-29T15:13:59;5.05;;;2.08;;
4466;SDS011;2246;42.664;23.278;2023-05-29T15:16:25;2.85;;;1.80;;
4466;SDS011;2246;42.664;23.278;2023-05-29T15:18:51;3.65;;;2.20;;
4466;SDS011;2246;42.664;23.278;2023-05-29T15:21:17;4.57;;;2.33;;
4466;SDS011;2246;42.664;23.278;2023-05-29T15:23:44;3.65;;;2.40;;
4466;SDS011;2246;42.664;23.278;2023-05-29T15:26:10;4.50;;;2.08;;